createdAt,value
2022-11-06T04:00:22.985Z,4.83
2022-11-06T04:03:04.902Z,4.85
2022-11-06T04:05:41.962Z,4.92
2022-11-06T04:08:29.688Z,4.88
2022-11-06T04:11:20.594Z,4.84
2022-11-06T04:14:00.791Z,4.85
2022-11-06T04:16:35.218Z,4.82
2022-11-06T04:19:02.471Z,4.78
2022-11-06T04:21:53.823Z,4.80
2022-11-06T04:24:51.241Z,4.84
2022-11-06T04:27:29.323Z,4.87
2022-11-06T04:30:02.064Z,4.89
2022-11-06T04:32:46.907Z,4.94
2022-11-06T04:35:37.274Z,4.87
2022-11-06T04:38:28.271Z,4.83
2022-11-06T04:41:07.628Z,4.91
2022-11-06T04:43:44.782Z,4.95
2022-11-06T04:46:17.536Z,4.99
2022-11-06T04:48:45.677Z,4.94
2022-11-06T04:51:14.344Z,4.98
2022-11-06T04:53:42.960Z,4.95
2022-11-06T04:56:12.500Z,4.95
2022-11-06T04:58:39.748Z,4.92
2022-11-06T05:01:06.616Z,4.94
2022-11-06T05:03:33.102Z,4.90
2022-11-06T05:05:59.592Z,5.01
2022-11-06T05:08:26.030Z,4.99
2022-11-06T05:10:52.468Z,5.02
2022-11-06T05:13:18.913Z,5.05
2022-11-06T05:15:45.373Z,5.08
2022-11-06T05:18:12.438Z,5.05
2022-11-06T05:20:39.261Z,4.99
2022-11-06T05:23:05.686Z,5.07
2022-11-06T05:25:37.540Z,5.09
2022-11-06T05:28:07.067Z,5.12
2022-11-06T05:30:35.725Z,5.16
2022-11-06T05:33:02.438Z,5.09
2022-11-06T05:35:28.944Z,5.07
2022-11-06T05:37:59.971Z,5.01
2022-11-06T05:40:26.445Z,5.01
2022-11-06T05:42:53.053Z,5.04
2022-11-06T05:45:19.517Z,5.09
2022-11-06T05:47:45.955Z,5.09
2022-11-06T05:50:12.681Z,5.04
2022-11-06T05:52:39.137Z,5.07
2022-11-06T05:55:11.594Z,5.08
2022-11-06T05:57:40.806Z,5.01
2022-11-06T06:00:08.278Z,5.03
2022-11-06T06:02:36.727Z,4.99
2022-11-06T06:05:04.081Z,4.97
2022-11-06T06:07:31.054Z,5.02
2022-11-06T06:09:57.683Z,5.01
2022-11-06T06:12:26.344Z,5.01
2022-11-06T06:14:53.889Z,5.11
2022-11-06T06:17:20.972Z,5.10
2022-11-06T06:19:48.383Z,5.15
2022-11-06T06:22:14.842Z,5.19
2022-11-06T06:24:41.877Z,5.19
2022-11-06T06:27:08.617Z,5.17
2022-11-06T06:29:35.047Z,5.16
2022-11-06T06:32:01.732Z,5.20
2022-11-06T06:34:28.159Z,5.18
2022-11-06T06:36:54.620Z,5.14
2022-11-06T06:39:21.386Z,5.13
2022-11-06T06:41:49.216Z,5.12
2022-11-06T06:44:16.188Z,5.16
2022-11-06T06:46:43.635Z,5.16
2022-11-06T06:49:10.183Z,5.17
2022-11-06T06:51:36.670Z,5.16
2022-11-06T06:54:03.623Z,5.24
2022-11-06T06:56:30.195Z,5.23
2022-11-06T06:58:56.655Z,5.24
2022-11-06T07:01:23.345Z,5.34
2022-11-06T07:03:49.926Z,5.34
2022-11-06T07:06:18.465Z,5.37
2022-11-06T07:08:47.032Z,5.39
2022-11-06T07:11:13.543Z,5.43
2022-11-06T07:13:40.018Z,5.50
2022-11-06T07:16:09.574Z,5.42
2022-11-06T07:18:36.484Z,5.41
2022-11-06T07:21:08.047Z,5.46
2022-11-06T07:23:35.739Z,5.40
2022-11-06T07:26:03.148Z,5.38
2022-11-06T07:28:29.640Z,5.39
2022-11-06T07:31:03.637Z,5.50
2022-11-06T07:33:30.459Z,5.67
2022-11-06T07:36:02.411Z,5.61
2022-11-06T07:38:28.885Z,5.68
2022-11-06T07:40:55.428Z,6.04
2022-11-06T07:43:21.900Z,7.01
2022-11-06T07:45:48.466Z,8.10
2022-11-06T07:48:15.241Z,8.71
2022-11-06T07:50:41.846Z,9.82
2022-11-06T07:53:08.582Z,10.04
2022-11-06T07:55:40.827Z,8.85
2022-11-06T07:58:08.568Z,8.60
2022-11-06T08:00:35.162Z,7.78
2022-11-06T08:03:01.630Z,7.65
2022-11-06T08:05:28.086Z,8.67
2022-11-06T08:07:57.872Z,9.27
2022-11-06T08:10:24.400Z,8.16
2022-11-06T08:12:50.827Z,7.74
2022-11-06T08:15:17.258Z,7.38
2022-11-06T08:17:43.703Z,7.12
2022-11-06T08:20:10.486Z,6.88
2022-11-06T08:22:36.985Z,6.84
2022-11-06T08:25:03.716Z,6.78
2022-11-06T08:27:30.212Z,6.94
2022-11-06T08:29:56.939Z,6.83
2022-11-06T08:32:23.575Z,6.62
2022-11-06T08:34:50.037Z,6.47
2022-11-06T08:37:16.543Z,6.50
2022-11-06T08:39:44.397Z,6.57
2022-11-06T08:42:10.869Z,6.49
2022-11-06T08:44:37.379Z,6.50
2022-11-06T08:47:03.907Z,6.52
2022-11-06T08:49:30.341Z,6.49
2022-11-06T08:51:56.869Z,6.46
2022-11-06T08:54:23.449Z,6.44
2022-11-06T08:56:50.004Z,6.45
2022-11-06T08:59:16.496Z,6.46
2022-11-06T09:01:43.080Z,6.43
2022-11-06T09:04:09.636Z,6.59
2022-11-06T09:06:36.146Z,6.57
2022-11-06T09:09:02.657Z,6.55
2022-11-06T09:11:29.092Z,6.46
2022-11-06T09:13:55.530Z,6.28
2022-11-06T09:16:22.058Z,6.52
2022-11-06T09:18:48.548Z,6.48
2022-11-06T09:21:15.192Z,6.44
2022-11-06T09:23:41.729Z,6.52
2022-11-06T09:26:08.209Z,6.59
2022-11-06T09:28:34.681Z,6.60
2022-11-06T09:31:02.456Z,6.59
2022-11-06T09:33:28.905Z,6.62
2022-11-06T09:35:55.362Z,6.71
2022-11-06T09:38:21.847Z,6.82
2022-11-06T09:41:00.040Z,7.09
2022-11-06T09:44:05.558Z,7.39
2022-11-06T09:46:35.959Z,7.84
2022-11-06T09:49:10.906Z,7.88
2022-11-06T09:51:44.145Z,7.82
2022-11-06T09:54:26.500Z,7.58
2022-11-06T09:57:02.016Z,7.73
2022-11-06T09:59:31.332Z,7.80
2022-11-06T10:02:01.675Z,8.17
2022-11-06T10:04:57.355Z,8.39
2022-11-06T10:07:33.563Z,8.08
2022-11-06T10:10:02.476Z,7.50
2022-11-06T10:12:53.106Z,7.58
2022-11-06T10:15:28.142Z,7.87
2022-11-06T10:18:06.059Z,8.04
2022-11-06T10:20:47.790Z,8.15
2022-11-06T10:23:26.118Z,8.26
2022-11-06T10:26:06.193Z,8.30
2022-11-06T10:28:44.858Z,8.51
2022-11-06T10:31:18.972Z,8.40
2022-11-06T10:34:02.637Z,8.36
2022-11-06T10:36:40.509Z,8.09
2022-11-06T10:39:15.767Z,8.19
2022-11-06T10:41:45.905Z,8.41
2022-11-06T10:44:27.069Z,8.78
2022-11-06T10:47:03.955Z,9.04
2022-11-06T10:49:30.411Z,9.03
2022-11-06T10:52:22.980Z,9.03
2022-11-06T10:55:23.426Z,9.21
2022-11-06T10:57:59.784Z,8.79
2022-11-06T11:00:26.858Z,8.46
2022-11-06T11:02:57.210Z,8.43
2022-11-06T11:05:26.027Z,8.53
2022-11-06T11:07:52.776Z,8.91
2022-11-06T11:11:04.236Z,9.10
2022-11-06T11:13:31.958Z,9.01
2022-11-06T11:15:58.818Z,9.01
2022-11-06T11:18:37.632Z,9.05
2022-11-06T11:21:12.643Z,9.00
2022-11-06T11:23:39.125Z,8.89
2022-11-06T11:26:21.909Z,8.61
2022-11-06T11:28:52.766Z,8.20
2022-11-06T11:31:19.543Z,8.45
2022-11-06T11:33:55.204Z,8.55
2022-11-06T11:36:21.690Z,8.39
2022-11-06T11:38:48.502Z,8.20
2022-11-06T11:41:20.862Z,8.22
2022-11-06T11:44:17.875Z,8.21
2022-11-06T11:46:48.870Z,8.21
2022-11-06T11:49:33.462Z,8.35
2022-11-06T11:52:05.261Z,8.22
2022-11-06T11:54:35.092Z,8.37
2022-11-06T11:57:08.884Z,8.50
2022-11-06T11:59:56.376Z,8.42
2022-11-06T12:02:31.736Z,8.42
2022-11-06T12:05:32.995Z,8.44
2022-11-06T12:08:01.307Z,8.41
2022-11-06T12:10:44.428Z,8.23
2022-11-06T12:13:19.491Z,8.20
2022-11-06T12:15:53.960Z,8.07
2022-11-06T12:18:27.486Z,8.02
2022-11-06T12:21:49.396Z,8.04
2022-11-06T12:24:23.709Z,7.91
2022-11-06T12:27:22.150Z,7.94
2022-11-06T12:29:56.813Z,8.06
2022-11-06T12:32:36.888Z,8.15
2022-11-06T12:35:25.479Z,8.13
2022-11-06T12:38:13.562Z,8.05
2022-11-06T12:40:46.803Z,8.02
2022-11-06T12:43:37.191Z,8.04
2022-11-06T12:46:16.163Z,8.02
2022-11-06T12:48:45.838Z,8.02
2022-11-06T12:51:27.640Z,7.91
2022-11-06T12:54:03.272Z,7.84
2022-11-06T12:56:32.806Z,7.73
2022-11-06T12:59:05.317Z,7.75
2022-11-06T13:01:53.544Z,7.78
2022-11-06T13:04:52.067Z,7.75
2022-11-06T13:07:40.393Z,7.86
2022-11-06T13:10:09.990Z,7.82
2022-11-06T13:12:54.316Z,7.79
2022-11-06T13:15:29.770Z,7.74
2022-11-06T13:18:15.938Z,7.76
2022-11-06T13:20:55.887Z,7.67
2022-11-06T13:23:29.856Z,7.59
2022-11-06T13:26:09.962Z,7.53
2022-11-06T13:28:49.824Z,7.59
2022-11-06T13:31:20.301Z,7.62
2022-11-06T13:33:58.252Z,7.46
2022-11-06T13:36:26.818Z,7.55
2022-11-06T13:39:02.822Z,7.48
2022-11-06T13:41:31.356Z,7.48
2022-11-06T13:44:03.285Z,7.45
2022-11-06T13:46:37.398Z,7.47
2022-11-06T13:49:16.348Z,7.39
2022-11-06T13:51:59.830Z,7.42
2022-11-06T13:54:32.157Z,7.40
2022-11-06T13:57:16.954Z,7.39
2022-11-06T14:00:10.463Z,7.38
2022-11-06T14:02:52.187Z,7.33
2022-11-06T14:05:44.929Z,7.35
2022-11-06T14:08:26.200Z,7.21
2022-11-06T14:10:57.469Z,7.09
2022-11-06T14:13:26.693Z,7.13
2022-11-06T14:16:18.221Z,7.10
2022-11-06T14:18:54.899Z,6.90
2022-11-06T14:21:36.567Z,6.95
2022-11-06T14:24:16.468Z,6.89
2022-11-06T14:26:47.445Z,6.79
2022-11-06T14:29:26.066Z,6.71
2022-11-06T14:32:02.083Z,6.75
2022-11-06T14:34:33.754Z,6.75
2022-11-06T14:37:20.204Z,6.72
2022-11-06T14:39:55.544Z,6.70
2022-11-06T14:42:37.985Z,6.61
2022-11-06T14:45:08.368Z,6.64
2022-11-06T14:47:50.679Z,6.61
2022-11-06T14:50:19.973Z,6.59
2022-11-06T14:53:00.931Z,6.60
2022-11-06T14:55:31.976Z,6.55
2022-11-06T14:58:20.910Z,6.56
2022-11-06T15:01:04.185Z,6.41
2022-11-06T15:03:33.601Z,6.43
2022-11-06T15:06:18.523Z,6.43
2022-11-06T15:08:51.000Z,6.37
2022-11-06T15:11:29.749Z,6.27
2022-11-06T15:14:01.157Z,6.21
2022-11-06T15:16:40.624Z,6.11
2022-11-06T15:19:32.024Z,6.06
2022-11-06T15:22:20.956Z,6.05
2022-11-06T15:25:20.019Z,6.01
2022-11-06T15:28:08.238Z,5.97
2022-11-06T15:31:01.613Z,5.88
2022-11-06T15:33:35.172Z,5.82
2022-11-06T15:36:06.729Z,5.72
2022-11-06T15:38:44.547Z,5.72
2022-11-06T15:41:21.143Z,5.64
2022-11-06T15:43:50.595Z,5.67
2022-11-06T15:46:19.256Z,5.60
2022-11-06T15:48:46.178Z,5.55
2022-11-06T15:51:25.651Z,5.50
2022-11-06T15:53:52.257Z,5.47
2022-11-06T15:56:23.417Z,5.45
2022-11-06T15:59:06.616Z,5.36
2022-11-06T16:01:34.151Z,5.30
2022-11-06T16:04:04.717Z,5.28
2022-11-06T16:06:32.319Z,5.20
2022-11-06T16:09:00.273Z,5.13
2022-11-06T16:11:27.825Z,5.02
2022-11-06T16:13:54.611Z,5.01
2022-11-06T16:16:33.186Z,4.99
2022-11-06T16:19:00.938Z,5.01
2022-11-06T16:21:31.256Z,5.03
2022-11-06T16:24:18.085Z,4.99
2022-11-06T16:26:50.518Z,4.99
2022-11-06T16:29:21.571Z,4.95
2022-11-06T16:31:49.319Z,4.86
2022-11-06T16:34:44.419Z,4.86
2022-11-06T16:37:16.865Z,4.83
2022-11-06T16:39:50.877Z,4.86
2022-11-06T16:42:23.237Z,4.83
2022-11-06T16:45:01.984Z,4.79
2022-11-06T16:47:28.838Z,4.77
2022-11-06T16:49:57.037Z,4.69
2022-11-06T16:52:28.928Z,4.57
2022-11-06T16:55:16.454Z,4.65
2022-11-06T16:57:45.958Z,4.66
2022-11-06T17:00:23.722Z,4.68
2022-11-06T17:03:03.623Z,4.66
2022-11-06T17:05:36.771Z,4.58
2022-11-06T17:08:18.601Z,4.58
2022-11-06T17:10:56.232Z,4.57
2022-11-06T17:13:31.472Z,4.62
2022-11-06T17:15:57.883Z,4.62
2022-11-06T17:18:32.323Z,4.64
2022-11-06T17:21:12.913Z,4.60
2022-11-06T17:23:39.872Z,4.56
2022-11-06T17:26:10.569Z,4.65
2022-11-06T17:28:36.987Z,4.62
2022-11-06T17:31:03.455Z,4.62
2022-11-06T17:33:29.897Z,4.55
2022-11-06T17:35:56.388Z,4.50
2022-11-06T17:38:22.894Z,4.53
2022-11-06T17:40:49.361Z,4.51
2022-11-06T17:43:16.188Z,4.42
2022-11-06T17:45:44.835Z,4.48
2022-11-06T17:48:11.391Z,4.30
2022-11-06T17:50:56.553Z,4.46
2022-11-06T17:53:23.124Z,4.35
2022-11-06T17:55:49.581Z,4.39
2022-11-06T17:58:16.382Z,4.33
2022-11-06T18:00:43.856Z,4.23
2022-11-06T18:03:20.442Z,4.13
2022-11-06T18:05:47.408Z,3.89
2022-11-06T18:08:14.581Z,4.12
2022-11-06T18:10:41.324Z,4.14
2022-11-06T18:13:07.796Z,4.16
2022-11-06T18:15:35.664Z,4.18
2022-11-06T18:18:02.998Z,4.16
2022-11-06T18:20:29.522Z,4.21
2022-11-06T18:22:55.987Z,4.24
2022-11-06T18:25:22.432Z,4.22
2022-11-06T18:27:48.856Z,4.20
2022-11-06T18:30:15.496Z,4.11
2022-11-06T18:32:41.940Z,4.04
2022-11-06T18:35:08.911Z,4.24
2022-11-06T18:37:35.413Z,4.19
2022-11-06T18:40:01.889Z,4.17
2022-11-06T18:42:28.413Z,4.15
2022-11-06T18:44:54.869Z,4.07
2022-11-06T18:47:21.312Z,3.98
2022-11-06T18:49:48.341Z,3.99
2022-11-06T18:52:27.719Z,3.91
2022-11-06T18:55:01.380Z,3.85
2022-11-06T18:57:29.303Z,3.84
2022-11-06T18:59:55.746Z,3.82
2022-11-06T19:02:22.370Z,3.61
2022-11-06T19:04:49.055Z,3.74
2022-11-06T19:07:15.809Z,3.77
2022-11-06T19:09:42.306Z,3.89
2022-11-06T19:12:08.773Z,3.95
2022-11-06T19:14:35.209Z,4.03
2022-11-06T19:17:01.670Z,4.04
2022-11-06T19:19:28.113Z,4.10
2022-11-06T19:21:54.636Z,4.08
2022-11-06T19:24:21.098Z,4.17
2022-11-06T19:26:47.929Z,4.16
2022-11-06T19:29:14.388Z,4.20
2022-11-06T19:31:41.775Z,4.10
2022-11-06T19:34:08.599Z,4.15
2022-11-06T19:36:35.542Z,4.14
2022-11-06T19:39:02.109Z,4.10
2022-11-06T19:41:29.050Z,4.06
2022-11-06T19:43:55.724Z,4.14
2022-11-06T19:46:26.881Z,4.23
2022-11-06T19:48:56.455Z,4.24
2022-11-06T19:51:23.006Z,4.24
2022-11-06T19:53:53.208Z,4.28
2022-11-06T19:56:19.790Z,4.15
2022-11-06T19:58:47.662Z,4.13
2022-11-06T20:01:14.680Z,4.10
2022-11-06T20:03:41.760Z,4.16
2022-11-06T20:06:08.858Z,4.10
2022-11-06T20:08:38.552Z,4.16
2022-11-06T20:11:06.642Z,4.24
2022-11-06T20:13:36.358Z,4.23
2022-11-06T20:16:07.936Z,4.22
2022-11-06T20:18:35.855Z,4.26
2022-11-06T20:21:04.441Z,4.31
2022-11-06T20:23:31.703Z,4.31
2022-11-06T20:25:58.233Z,4.23
2022-11-06T20:28:25.213Z,4.17
2022-11-06T20:30:52.371Z,4.15
2022-11-06T20:33:19.297Z,4.13
2022-11-06T20:35:45.855Z,4.07
2022-11-06T20:38:14.372Z,4.14
2022-11-06T20:40:42.331Z,4.18
2022-11-06T20:43:10.020Z,4.12
2022-11-06T20:45:37.702Z,4.15
2022-11-06T20:48:05.723Z,4.19
2022-11-06T20:50:32.537Z,4.18
2022-11-06T20:52:59.321Z,4.22
2022-11-06T20:55:25.866Z,4.23
2022-11-06T20:57:52.368Z,4.24
2022-11-06T21:00:19.003Z,4.20
2022-11-06T21:02:46.513Z,4.19
2022-11-06T21:05:14.957Z,4.13
2022-11-06T21:07:41.679Z,4.20
2022-11-06T21:10:09.983Z,4.19
2022-11-06T21:12:36.441Z,4.22
2022-11-06T21:15:03.123Z,4.22
2022-11-06T21:17:29.598Z,4.25
2022-11-06T21:19:56.025Z,4.28
2022-11-06T21:22:22.502Z,4.33
2022-11-06T21:24:49.040Z,4.31
2022-11-06T21:27:15.497Z,4.39
2022-11-06T21:29:41.956Z,4.41
2022-11-06T21:32:08.391Z,4.48
2022-11-06T21:34:34.881Z,4.51
2022-11-06T21:37:02.940Z,4.51
2022-11-06T21:39:35.652Z,4.53
2022-11-06T21:42:03.005Z,4.55
2022-11-06T21:44:29.483Z,4.57
2022-11-06T21:46:55.935Z,4.56
2022-11-06T21:49:22.438Z,4.65
2022-11-06T21:51:48.884Z,4.67
2022-11-06T21:54:33.822Z,4.63
2022-11-06T21:57:00.654Z,4.71
2022-11-06T21:59:28.697Z,4.72
2022-11-06T22:01:55.588Z,4.74
2022-11-06T22:04:22.334Z,4.75
2022-11-06T22:06:48.792Z,4.72
2022-11-06T22:09:16.612Z,4.74
2022-11-06T22:11:45.010Z,4.73
2022-11-06T22:14:15.080Z,4.79
2022-11-06T22:16:43.619Z,4.86
2022-11-06T22:19:11.287Z,4.83
2022-11-06T22:21:39.400Z,4.78
2022-11-06T22:24:06.842Z,4.92
2022-11-06T22:26:34.618Z,4.91
2022-11-06T22:29:05.372Z,4.86
